Perry, Oklahoma
Current Conditions -  °F | °C
As of 4:53 PM on Wednesday 22 Oct 2014 (Local Time) from KSWO Reporting Station
Few Clouds Few Clouds  
Wind Chill: 77°   Ceiling: Unl
Heat Index: 79°   Visibility: 10mi
Dew Point: 56°   Wind: 10mph
Humidity: 48%   Direction: 180°S
Pressure: 30.07"   Gusts: NA
Location:  36.29°N, 97.29°W
Report Text: KSWO 222153Z AUTO 18009KT 10SM FEW060 25/13 A3007 RMK AO2 SLP172 T02500133
Loading
Personal Weather Stations






























Interactive Weather Map
Tropical Storm Tracking
New forecast layout! Learn more

10-Day Weather Forecast

Advertisements
Track Severe Weather on mobile